Latest Coastal Weather Observations for Carnarvon

IDW60701

Issued at 6:12 am WST Wednesday 8 July 2015 (issued every 10 minutes, with the page automatically refreshed every 10 minutes)

About coastal observations | Map of coastal stations | Coastal observations for WA | Marine services | Other Formats
Station Details ID: 006011 Name: CARNARVON AIRPORT Lat: -24.89 Lon: 113.67 Height: 4.0 m
Data from the previous 72 hours. | See also: Recent months at Carnarvon
Date/Time
WST
Temp

°C
Wind Pressure Rain
since 9am
mm
Weather Cloud Vis
km
Sea
Height
m
Swell
Dir
 
Speed
knots
Gust
knots
hPa Trend Height
m
Period
s
Dir
08/06:00am 12.6 ESE 5 6 1019.2 - 0.0 - - 10 - - - -
08/05:30am 13.7 SE 7 9 1019.1 - 0.0 - - 10 - - - -
08/05:00am 13.8 SE 8 9 1019.0 - 0.0 - - 10 - - - -
08/04:30am 13.7 ESE 6 7 1018.9 - 0.0 - - 10 - - - -
08/04:00am 14.2 SE 7 7 1018.8 - 0.0 - - 10 - - - -
08/03:30am 15.4 SSE 7 9 1018.8 - 0.0 - - 10 - - - -
08/03:00am 16.6 SSE 10 12 1018.6 - 0.0 - - 10 - - - -
08/02:30am 16.8 S 10 12 1018.5 - 0.0 - - 10 - - - -
08/02:00am 16.8 SSE 10 13 1018.7 - 0.0 - - 10 - - - -
08/01:30am 17.0 SSE 11 14 1018.7 - 0.0 - - 10 - - - -
08/01:00am 17.2 SSE 12 16 1018.6 - 0.0 - - 10 - - - -
08/12:30am 17.6 S 13 18 1018.6 - 0.0 - - 10 - - - -
08/12:00am 17.5 S 11 15 1018.7 - 0.0 - - 10 - - - -
 
Date/Time
WST
Temp

°C
Wind Pressure Rain
since 9am
mm
Weather Cloud Vis
km
Sea
Height
m
Swell
Dir
 
Speed
knots
Gust
knots
hPa Trend Height
m
Period
s
Dir
07/11:30pm 17.6 S 13 18 1018.9 - 0.0 - - 10 - - - -
07/11:00pm 17.6 S 12 15 1019.0 - 0.0 - - 10 - - - -
07/10:30pm 17.8 S 12 17 1019.0 - 0.0 - - 10 - - - -
07/10:00pm 18.1 S 13 18 1019.2 - 0.0 - - 10 - - - -
07/09:30pm 18.2 S 13 17 1019.1 - 0.0 - - 10 - - - -
07/09:00pm 18.5 S 14 18 1019.1 - 0.0 - - 10 - - - -
07/08:30pm 18.5 S 12 17 1019.1 - 0.0 - - 10 - - - -
07/08:00pm 18.9 S 12 15 1019.1 - 0.0 - - 10 - - - -
07/07:30pm 19.0 S 10 13 1018.8 - 0.0 - - 10 - - - -
07/07:00pm 18.3 SSW 8 9 1018.6 - 0.0 - - 10 - - - -
07/06:30pm 18.1 S 6 8 1018.3 - 0.0 - - 10 - - - -
07/06:00pm 19.2 S 10 12 1018.0 - 0.0 - - 10 - - - -
07/05:30pm 20.0 S 10 13 1017.8 - 0.0 - - 10 - - - -
07/05:00pm 20.6 S 12 16 1017.7 - 0.0 - - 10 - - - -
07/04:30pm 21.4 S 15 22 1017.4 - 0.0 - - 10 - - - -
07/04:00pm 21.3 S 15 19 1017.4 - 0.0 - - 10 - - - -
07/03:30pm 21.1 S 15 20 1017.4 - 0.0 - - 10 - - - -
07/03:00pm 20.9 SSW 15 19 1017.5 - 0.0 Fine Clear 30 - - - -
07/02:30pm 20.9 SSW 14 17 1017.6 - 0.0 - - 10 - - - -
07/02:00pm 21.2 S 14 17 1017.8 - 0.0 - - 10 - - - -
07/01:30pm 21.0 SSW 13 16 1018.0 - 0.0 - - 10 - - - -
07/01:00pm 20.9 S 14 17 1018.5 - 0.0 - - 10 - - - -
07/12:30pm 20.9 SSW 11 15 1019.0 - 0.0 - - 10 - - - -
07/12:00pm 23.5 SSE 9 13 1019.4 - 0.0 - - 10 - - - -
07/11:30am 22.5 SE 8 12 1019.8 - 0.0 - - 10 - - - -
07/11:00am 21.9 SE 8 11 1020.1 - 0.0 - - 10 - - - -
07/10:30am 20.8 ESE 9 12 1020.4 - 0.0 - - 10 - - - -
07/10:00am 19.3 ESE 9 12 1020.5 - 0.0 - - 10 - - - -
07/09:30am 17.7 ESE 8 11 1020.4 - 0.0 - - 10 - - - -
07/09:00am 15.5 ESE 7 10 1020.1 - 0.0 Fine Clear 25 - - - -
07/08:30am 13.3 ESE 5 7 1019.9 - 0.0 - - 10 - - - -
07/08:00am 11.0 SE 5 6 1019.7 - 0.0 - - 10 - - - -
07/07:30am 9.4 ESE 4 5 1019.5 - 0.0 - - 10 - - - -
07/07:00am 8.8 ESE 4 5 1019.4 - 0.0 - - 10 - - - -
07/06:30am 10.0 ESE 7 8 1019.0 - 0.0 - - 10 - - - -
07/06:00am 10.7 SE 8 9 1019.0 - 0.0 - - 10 - - - -
07/05:30am 11.0 SE 9 10 1018.8 - 0.0 - - 10 - - - -
07/05:00am 10.9 SE 8 9 1018.6 - 0.0 - - 10 - - - -
07/04:30am 11.3 SSE 8 10 1018.7 - 0.0 - - 10 - - - -
07/04:00am 11.1 SE 7 7 1018.6 - 0.0 - - 10 - - - -
07/03:30am 11.8 SE 7 8 1018.6 - 0.0 - - 10 - - - -
07/03:00am 12.5 SE 8 9 1018.8 - 0.0 - - 10 - - - -
07/02:30am 13.1 SE 9 10 1018.9 - 0.0 - - 10 - - - -
07/02:00am 12.6 SE 8 9 1018.9 - 0.0 - - 10 - - - -
07/01:30am 13.8 SSE 7 8 1019.1 - 0.0 - - 10 - - - -
07/01:00am 14.0 S 4 5 1019.0 - 0.0 - - 10 - - - -
07/12:30am 13.5 SE 5 6 1019.1 - 0.0 - - 10 - - - -
07/12:00am 15.0 S 6 7 1019.1 - 0.0 - - 10 - - - -
 
Date/Time
WST
Temp

°C
Wind Pressure Rain
since 9am
mm
Weather Cloud Vis
km
Sea
Height
m
Swell
Dir
 
Speed
knots
Gust
knots
hPa Trend Height
m
Period
s
Dir
06/11:30pm 15.9 S 7 8 1019.3 - 0.0 - - 10 - - - -
06/11:00pm 16.3 S 8 9 1019.4 - 0.0 - - 10 - - - -
06/10:30pm 16.2 S 8 10 1019.5 - 0.0 - - 10 - - - -
06/10:00pm 16.1 S 8 9 1019.5 - 0.0 - - 10 - - - -
06/09:30pm 15.8 S 8 9 1019.8 - 0.0 - - 10 - - - -
06/09:00pm 15.3 S 6 7 1019.6 - 0.0 - - 10 - - - -
06/08:30pm 15.2 S 6 7 1019.6 - 0.0 - - 10 - - - -
06/08:00pm 16.0 S 6 7 1019.5 - 0.0 - - 10 - - - -
06/07:30pm 16.9 S 7 8 1019.3 - 0.0 - - 10 - - - -
06/07:00pm 17.4 S 7 8 1019.1 - 0.0 - - 10 - - - -
06/06:30pm 18.4 S 9 10 1018.8 - 0.0 - - 10 - - - -
06/06:00pm 19.1 S 9 11 1018.6 - 0.0 - - 10 - - - -
06/05:30pm 19.9 S 9 11 1018.5 - 0.0 - - 10 - - - -
06/05:00pm 20.6 S 11 14 1018.4 - 0.0 - - 10 - - - -
06/04:30pm 21.3 S 12 15 1018.5 - 0.0 - - 10 - - - -
06/04:00pm 21.3 S 14 17 1018.4 - 0.0 - - 10 - - - -
06/03:30pm 21.6 S 14 18 1018.4 - 0.0 - - 10 - - - -
06/03:00pm 21.8 SSW 13 17 1018.4 - 0.0 Fine Clear 30 - - - -
06/02:30pm 22.2 S 12 15 1018.4 - 0.0 - - 10 - - - -
06/02:00pm 22.0 SSW 12 14 1018.6 - 0.0 - - 10 - - - -
06/01:30pm 23.5 SE 8 14 1018.6 - 0.0 - - 10 - - - -
06/01:00pm 24.9 E 10 13 1018.9 - 0.0 - - 10 - - - -
06/12:30pm 24.7 SE 10 14 1019.3 - 0.0 - - 10 - - - -
06/12:00pm 24.2 E 11 15 1019.6 - 0.0 - - 10 - - - -
06/11:30am 23.4 E 11 14 1020.1 - 0.0 - - 10 - - - -
06/11:00am 22.1 ESE 10 13 1020.5 - 0.0 - - 10 - - - -
06/10:30am 20.9 E 11 14 1020.8 - 0.0 - - 10 - - - -
06/10:00am 19.5 ESE 11 14 1020.9 - 0.0 - - 10 - - - -
06/09:30am 17.9 ESE 11 15 1021.0 - 0.0 - - 10 - - - -
06/09:00am 16.3 ESE 10 13 1021.0 - 0.2 Fine Clear 25 - - - -
06/08:30am 14.7 SE 9 12 1020.8 - 0.2 - - 10 - - - -
06/08:00am 12.8 SE 8 11 1020.4 - 0.2 - - 10 - - - -
06/07:30am 11.6 SE 8 10 1020.2 - 0.2 - - 10 - - - -
06/07:00am 11.2 SE 7 8 1019.9 - 0.2 - - 10 - - - -
06/06:30am 11.6 SE 7 9 1019.7 - 0.2 - - 10 - - - -
06/06:00am 12.0 SE 8 9 1019.6 - 0.2 - - 10 - - - -
06/05:30am 12.7 SE 8 9 1019.4 - 0.2 - - 10 - - - -
06/05:00am 13.2 SE 8 9 1019.5 - 0.2 - - 10 - - - -
06/04:30am 13.9 SE 9 11 1019.5 - 0.2 - - 10 - - - -
06/04:00am 14.6 SE 10 12 1019.4 - 0.2 - - 10 - - - -
06/03:30am 14.9 SSE 9 12 1019.5 - 0.2 - - 10 - - - -
06/03:00am 14.2 SSE 8 10 1019.7 - 0.2 - - 10 - - - -
06/02:30am 13.5 SSE 6 7 1019.9 - 0.2 - Partly cloudy 10 - - - -
06/02:00am 13.5 SE 5 6 1020.0 - 0.2 - Partly cloudy 10 - - - -
06/01:30am 14.0 SE 5 5 1020.1 - 0.2 - Partly cloudy 10 - - - -
06/01:00am 14.3 SE 6 7 1020.1 - 0.2 - Partly cloudy 10 - - - -
06/12:30am 16.2 SSE 8 11 1020.1 - 0.2 - Partly cloudy 10 - - - -
06/12:00am 16.9 SSE 9 11 1020.1 - 0.2 - - 10 - - - -
 
Date/Time
WST
Temp

°C
Wind Pressure Rain
since 9am
mm
Weather Cloud Vis
km
Sea
Height
m
Swell
Dir
 
Speed
knots
Gust
knots
hPa Trend Height
m
Period
s
Dir
05/11:30pm 17.4 S 11 14 1020.2 - 0.2 - - 10 - - - -
05/11:00pm 17.7 S 12 16 1020.2 - 0.2 - - 10 - - - -
05/10:30pm 17.7 S 12 16 1020.2 - 0.2 - - 10 - - - -
05/10:00pm 17.3 S 9 11 1020.4 - 0.2 - - 10 - - - -
05/09:30pm 17.5 S 8 9 1020.5 - 0.2 - - 10 - - - -
05/09:00pm 18.1 S 8 9 1020.3 - 0.2 - - 10 - - - -
05/08:30pm 18.5 S 8 10 1020.3 - 0.2 - - 10 - - - -
05/08:00pm 18.7 SSW 8 10 1020.0 - 0.2 - - 10 - - - -
05/07:30pm 19.0 SSW 10 12 1020.0 - 0.2 - - 10 - - - -
05/07:00pm 19.3 S 10 13 1019.8 - 0.2 - - 10 - - - -
05/06:30pm 19.5 S 10 12 1019.6 - 0.2 - - 10 - - - -
05/06:00pm 19.7 S 11 14 1019.5 - 0.2 - - 10 - - - -
05/05:30pm 20.1 SSW 12 15 1019.4 - 0.2 - - 10 - - - -
05/05:00pm 20.6 SSW 12 15 1019.3 - 0.2 - - 10 - - - -
05/04:30pm 21.0 SSW 11 14 1019.2 - 0.2 - - 10 - - - -
05/04:00pm 21.5 SSW 12 15 1019.2 - 0.2 - - 10 - - - -
05/03:30pm 21.2 SSW 13 17 1019.2 - 0.2 - - 10 - - - -
05/03:00pm 22.1 SSW 12 15 1019.3 - 0.2 Fine Clear 30 - - - -
05/02:30pm 22.9 SSW 10 12 1019.2 - 0.2 - - 10 - - - -
05/02:00pm 23.2 SSW 9 11 1019.3 - 0.2 - - 10 - - - -
05/01:30pm 23.0 SSW 8 10 1019.8 - 0.2 - - 10 - - - -
05/01:00pm 23.2 SSW 8 10 1020.3 - 0.2 - - 10 - - - -
05/12:30pm 21.9 SSW 8 10 1020.8 - 0.2 - - 10 - - - -
05/12:00pm 21.4 SSW 8 9 1021.2 - 0.0 - - 10 - - - -
05/11:30am 21.5 SSW 8 10 1021.6 - 0.0 - - 10 - - - -
05/11:00am 20.5 SSW 9 11 1022.0 - 0.0 - - 10 - - - -
05/10:30am 20.6 S 7 9 1022.2 - 0.0 - - 10 - - - -
05/10:00am 19.3 S 7 10 1022.2 - 0.0 - - 10 - - - -
05/09:30am 18.4 SSE 9 11 1022.1 - 0.0 - - 10 - - - -
05/09:00am 17.1 SSE 9 12 1021.9 - 0.0 Fine Clear 25 - - - -
05/08:30am 15.8 SSE 8 11 1021.7 - 0.0 - - 10 - - - -
05/08:00am 14.5 SSE 7 9 1021.4 - 0.0 - - 10 - - - -
05/07:30am 12.6 SSE 7 8 1021.1 - 0.0 - - 10 - - - -
05/07:00am 12.6 SSE 7 8 1020.9 - 0.0 - - 10 - - - -
05/06:30am 12.8 SSE 7 8 1020.7 - 0.0 - - 10 - - - -

Other Formats:

Comma delimited format used in spreadsheet applications
http://www.bom.gov.au/fwo/IDW60701/IDW60701.94300.axf

JavaScript Object Notation format (JSON) in row-major order
http://www.bom.gov.au/fwo/IDW60701/IDW60701.94300.json